createdAt,value
2018-10-12T00:02:21.142Z,14.17
2018-10-12T00:04:49.303Z,15.00
2018-10-12T00:07:17.442Z,15.10
2018-10-12T00:09:45.385Z,15.10
2018-10-12T00:12:13.528Z,14.67
2018-10-12T00:14:41.672Z,14.60
2018-10-12T00:17:09.843Z,14.50
2018-10-12T00:19:37.975Z,13.90
2018-10-12T00:22:05.909Z,14.93
2018-10-12T00:24:34.067Z,13.87
2018-10-12T00:27:01.975Z,14.33
2018-10-12T00:29:30.139Z,13.03
2018-10-12T00:31:58.064Z,14.20
2018-10-12T00:34:26.182Z,14.10
2018-10-12T00:36:54.330Z,13.97
2018-10-12T00:39:22.458Z,14.53
2018-10-12T00:41:50.603Z,13.97
2018-10-12T00:44:18.528Z,14.53
2018-10-12T00:46:46.686Z,13.10
2018-10-12T00:49:14.828Z,13.43
2018-10-12T00:51:42.995Z,13.70
2018-10-12T00:54:10.993Z,13.13
2018-10-12T00:56:38.958Z,13.53
2018-10-12T00:59:07.150Z,12.90
2018-10-12T01:01:35.302Z,12.53
2018-10-12T01:04:03.458Z,14.10
2018-10-12T01:06:31.431Z,13.47
2018-10-12T01:08:59.531Z,13.07
2018-10-12T01:11:27.704Z,12.50
2018-10-12T01:13:55.862Z,13.10
2018-10-12T01:16:24.075Z,12.73
2018-10-12T01:18:52.250Z,11.87
2018-10-12T01:21:20.420Z,13.57
2018-10-12T01:23:48.575Z,12.90
2018-10-12T01:26:16.742Z,12.83
2018-10-12T01:28:49.113Z,13.30
2018-10-12T01:31:17.391Z,13.07
2018-10-12T01:33:45.555Z,12.27
2018-10-12T01:36:13.719Z,13.27
2018-10-12T01:38:41.879Z,12.80
2018-10-12T01:41:10.067Z,12.03
2018-10-12T01:43:37.990Z,13.10
2018-10-12T01:46:06.142Z,13.33
2018-10-12T01:48:34.307Z,13.27
2018-10-12T01:51:02.434Z,14.60
2018-10-12T01:53:30.639Z,13.43
2018-10-12T01:56:01.096Z,13.90
2018-10-12T01:58:29.106Z,13.90
2018-10-12T02:00:57.240Z,12.67
2018-10-12T02:03:25.382Z,12.37
2018-10-12T02:05:53.566Z,12.20
2018-10-12T02:08:21.731Z,12.63
2018-10-12T02:10:49.870Z,12.47
2018-10-12T02:13:17.810Z,12.43
2018-10-12T02:15:45.954Z,13.17
2018-10-12T02:18:14.119Z,12.13
2018-10-12T02:20:42.234Z,11.53
2018-10-12T02:23:10.374Z,11.53
2018-10-12T02:25:38.539Z,12.27
2018-10-12T02:28:06.683Z,11.93
2018-10-12T02:30:34.808Z,11.30
2018-10-12T02:33:02.950Z,11.00
2018-10-12T02:35:31.075Z,10.73
2018-10-12T02:37:59.002Z,11.40
2018-10-12T02:40:27.142Z,11.00
2018-10-12T02:42:55.414Z,10.97
2018-10-12T02:45:23.561Z,11.20
2018-10-12T02:47:51.722Z,12.23
2018-10-12T02:50:19.895Z,11.33
2018-10-12T02:52:48.057Z,10.90
2018-10-12T02:55:16.239Z,11.67
2018-10-12T02:57:44.403Z,11.70
2018-10-12T03:00:12.576Z,10.93
2018-10-12T03:02:40.762Z,12.17
2018-10-12T03:05:08.931Z,12.23
2018-10-12T03:07:37.109Z,11.07
2018-10-12T03:10:05.318Z,11.70
2018-10-12T03:12:33.477Z,11.13
2018-10-12T03:15:01.646Z,11.60
2018-10-12T03:17:29.786Z,12.10
2018-10-12T03:19:57.706Z,12.23
2018-10-12T03:22:25.870Z,12.40
2018-10-12T03:24:54.059Z,13.07
2018-10-12T03:27:22.212Z,11.70
2018-10-12T03:29:50.374Z,11.97
2018-10-12T03:32:18.521Z,12.83
2018-10-12T03:34:46.686Z,11.43
2018-10-12T03:37:14.863Z,12.27
2018-10-12T03:39:43.032Z,12.20
2018-10-12T03:42:11.210Z,11.87
2018-10-12T03:44:39.167Z,11.63
2018-10-12T03:47:07.078Z,12.53
2018-10-12T03:49:35.019Z,12.53
2018-10-12T03:52:06.485Z,11.67
2018-10-12T03:54:34.590Z,12.30
2018-10-12T03:57:02.511Z,11.33
2018-10-12T03:59:30.682Z,11.23
2018-10-12T04:01:58.602Z,11.90
2018-10-12T04:04:26.762Z,11.07
2018-10-12T04:06:54.924Z,11.33
2018-10-12T04:09:23.080Z,11.27
2018-10-12T04:11:51.242Z,11.13
2018-10-12T04:14:19.425Z,12.10
2018-10-12T04:16:47.598Z,10.97
2018-10-12T04:19:15.777Z,12.03
2018-10-12T04:21:43.950Z,11.27
2018-10-12T04:24:11.896Z,10.83
2018-10-12T04:26:39.850Z,11.50
2018-10-12T04:29:07.997Z,11.10
2018-10-12T04:31:36.168Z,11.27
2018-10-12T04:34:04.328Z,11.37
2018-10-12T04:36:32.500Z,10.87
2018-10-12T04:39:06.122Z,11.47
2018-10-12T04:41:34.317Z,10.93
2018-10-12T04:44:03.365Z,12.03
2018-10-12T04:46:35.173Z,11.60
2018-10-12T04:49:03.380Z,11.70
2018-10-12T04:51:37.450Z,12.53
2018-10-12T04:54:05.450Z,10.83
2018-10-12T04:56:33.366Z,10.97
2018-10-12T04:59:02.252Z,11.10
2018-10-12T05:01:30.391Z,11.17
2018-10-12T05:03:58.568Z,11.70
2018-10-12T05:06:26.706Z,11.07
2018-10-12T05:08:54.843Z,10.13
2018-10-12T05:11:23.018Z,10.47
2018-10-12T05:13:51.181Z,10.43
2018-10-12T05:16:19.327Z,10.50
2018-10-12T05:18:47.254Z,11.17
2018-10-12T05:21:15.162Z,10.57
2018-10-12T05:23:43.217Z,10.80
2018-10-12T05:26:11.158Z,10.97
2018-10-12T05:28:39.411Z,11.17
2018-10-12T05:31:07.715Z,11.40
2018-10-12T05:33:35.902Z,11.40
2018-10-12T05:36:03.897Z,11.57
2018-10-12T05:38:32.466Z,11.43
2018-10-12T05:41:00.791Z,10.27
2018-10-12T05:43:28.843Z,10.43
2018-10-12T05:45:56.674Z,10.70
2018-10-12T05:48:36.271Z,11.10
2018-10-12T05:51:05.058Z,10.80
2018-10-12T05:53:33.481Z,11.47
2018-10-12T05:56:01.416Z,11.57
2018-10-12T05:58:29.603Z,10.67
2018-10-12T06:00:57.794Z,11.07
2018-10-12T06:03:25.946Z,11.13
2018-10-12T06:05:54.105Z,11.27
2018-10-12T06:08:22.087Z,10.77
2018-10-12T06:10:50.297Z,11.57
2018-10-12T06:13:18.370Z,10.97
2018-10-12T06:15:46.601Z,11.47
2018-10-12T06:18:14.710Z,11.23
2018-10-12T06:20:42.858Z,11.00
2018-10-12T06:23:11.020Z,10.90
2018-10-12T06:25:38.942Z,12.93
2018-10-12T06:28:07.115Z,12.10
2018-10-12T06:30:35.047Z,11.17
2018-10-12T06:33:03.040Z,12.20
2018-10-12T06:35:31.213Z,11.37
2018-10-12T06:37:59.955Z,12.17
2018-10-12T06:40:28.475Z,11.23
2018-10-12T06:42:56.627Z,11.80
2018-10-12T06:45:24.842Z,11.73
2018-10-12T06:47:52.761Z,11.87
2018-10-12T06:50:20.987Z,10.97
2018-10-12T06:52:48.906Z,11.30
2018-10-12T06:55:17.091Z,11.13
2018-10-12T06:57:45.263Z,11.90
2018-10-12T07:00:13.437Z,11.77
2018-10-12T07:02:41.609Z,11.90
2018-10-12T07:05:09.823Z,11.03
2018-10-12T07:07:38.001Z,10.83
2018-10-12T07:10:05.951Z,10.40
2018-10-12T07:12:34.156Z,10.37
2018-10-12T07:15:02.331Z,11.13
2018-10-12T07:17:30.530Z,10.07
2018-10-12T07:19:58.725Z,9.60
2018-10-12T07:22:26.898Z,8.53
2018-10-12T07:24:55.059Z,7.80
2018-10-12T07:27:23.214Z,7.20
2018-10-12T07:29:51.378Z,7.70
2018-10-12T07:32:19.535Z,8.23
2018-10-12T07:34:47.694Z,7.83
2018-10-12T07:37:15.909Z,7.83
2018-10-12T07:39:44.099Z,8.20
2018-10-12T07:42:12.286Z,8.23
2018-10-12T07:44:40.501Z,8.20
2018-10-12T07:47:08.715Z,8.93
2018-10-12T07:49:36.858Z,9.00
2018-10-12T07:52:04.790Z,9.20
2018-10-12T07:54:32.964Z,8.90
2018-10-12T07:57:15.848Z,9.47
2018-10-12T07:59:45.029Z,9.20
2018-10-12T08:02:13.834Z,9.13
2018-10-12T08:04:42.542Z,8.03
2018-10-12T08:07:11.832Z,8.30
2018-10-12T08:09:40.098Z,7.57
2018-10-12T08:12:08.007Z,8.40
2018-10-12T08:14:35.930Z,8.03
2018-10-12T08:17:04.113Z,8.77
2018-10-12T08:19:32.392Z,8.40
2018-10-12T08:22:00.567Z,8.53
2018-10-12T08:24:28.751Z,7.77
2018-10-12T08:26:56.926Z,7.97
2018-10-12T08:29:26.665Z,8.23
2018-10-12T08:31:54.940Z,7.50
2018-10-12T08:34:23.089Z,7.07
2018-10-12T08:36:51.102Z,7.27
2018-10-12T08:39:19.296Z,7.70
2018-10-12T08:41:47.488Z,7.20
2018-10-12T08:44:15.879Z,7.23
2018-10-12T08:46:44.042Z,7.17
2018-10-12T08:49:11.990Z,6.50
2018-10-12T08:51:40.158Z,5.77
2018-10-12T08:54:08.425Z,6.47
2018-10-12T08:56:37.139Z,6.43
2018-10-12T08:59:05.094Z,6.40
2018-10-12T09:01:33.301Z,6.83
2018-10-12T09:04:02.191Z,6.43
2018-10-12T09:06:30.352Z,6.30
2018-10-12T09:08:58.888Z,6.20
2018-10-12T09:11:27.079Z,5.60
2018-10-12T09:13:55.235Z,5.90
2018-10-12T09:16:23.428Z,6.17
2018-10-12T09:18:51.571Z,6.00
2018-10-12T09:21:19.792Z,6.27
2018-10-12T09:23:47.742Z,6.00
2018-10-12T09:26:15.925Z,5.60
2018-10-12T09:28:43.845Z,4.67
2018-10-12T09:31:12.034Z,5.37
2018-10-12T09:33:40.210Z,5.30
2018-10-12T09:36:08.378Z,5.47
2018-10-12T09:38:36.821Z,5.47
2018-10-12T09:41:05.054Z,5.47
2018-10-12T09:43:33.228Z,5.47
2018-10-12T09:46:01.430Z,4.70
2018-10-12T09:48:29.604Z,5.03
2018-10-12T09:50:57.738Z,5.00
2018-10-12T09:53:25.657Z,5.20
2018-10-12T09:55:53.660Z,4.83
2018-10-12T09:58:21.507Z,4.77
2018-10-12T10:00:55.145Z,5.10
2018-10-12T10:03:28.673Z,4.87
2018-10-12T10:05:56.580Z,5.10
2018-10-12T10:08:24.888Z,4.47
2018-10-12T10:10:52.966Z,5.13
2018-10-12T10:13:21.179Z,4.90
2018-10-12T10:15:49.318Z,4.47
2018-10-12T10:18:17.475Z,4.70
2018-10-12T10:20:45.691Z,3.97
2018-10-12T10:23:13.864Z,4.20
2018-10-12T10:25:42.027Z,4.07
2018-10-12T10:28:10.192Z,3.63
2018-10-12T10:30:38.338Z,3.77
2018-10-12T10:33:06.563Z,3.50
2018-10-12T10:35:34.738Z,3.77
2018-10-12T10:38:02.919Z,4.07
2018-10-12T10:40:31.078Z,2.87
2018-10-12T10:42:59.466Z,3.00
2018-10-12T10:45:27.639Z,3.33
2018-10-12T10:47:55.802Z,3.50
2018-10-12T10:50:24.050Z,3.03
2018-10-12T10:52:52.194Z,3.23
2018-10-12T10:55:20.387Z,3.37
2018-10-12T10:57:48.543Z,3.20
2018-10-12T11:00:16.757Z,2.90
2018-10-12T11:02:44.750Z,3.43
2018-10-12T11:05:12.976Z,3.30
2018-10-12T11:07:41.151Z,3.60
2018-10-12T11:10:09.443Z,3.10
2018-10-12T11:12:37.734Z,3.00
2018-10-12T11:15:06.650Z,3.00
2018-10-12T11:17:34.815Z,2.97
2018-10-12T11:20:03.007Z,3.03
2018-10-12T11:22:31.208Z,2.77
2018-10-12T11:24:59.374Z,2.63
2018-10-12T11:27:27.539Z,3.27
2018-10-12T11:29:55.712Z,2.80
2018-10-12T11:32:23.955Z,3.10
2018-10-12T11:34:52.117Z,3.07
2018-10-12T11:37:20.300Z,3.43
2018-10-12T11:39:48.471Z,3.03
2018-10-12T11:42:16.744Z,2.80
2018-10-12T11:44:44.725Z,3.30
2018-10-12T11:47:12.850Z,3.20
2018-10-12T11:49:41.019Z,2.53
2018-10-12T11:52:09.257Z,3.00
2018-10-12T11:54:37.379Z,3.17
2018-10-12T11:57:05.546Z,3.03
2018-10-12T11:59:33.746Z,3.00
2018-10-12T12:02:02.009Z,2.57
2018-10-12T12:04:30.168Z,3.10
2018-10-12T12:06:58.362Z,2.77
2018-10-12T12:09:26.567Z,2.80
2018-10-12T12:11:54.814Z,2.83
2018-10-12T12:14:23.031Z,2.70
2018-10-12T12:16:51.193Z,2.60
2018-10-12T12:19:19.380Z,2.50
2018-10-12T12:21:47.545Z,2.77
2018-10-12T12:24:15.733Z,2.43
2018-10-12T12:26:43.887Z,2.80
2018-10-12T12:29:12.051Z,2.30
2018-10-12T12:31:40.243Z,2.37
2018-10-12T12:34:08.398Z,2.33
2018-10-12T12:36:36.569Z,2.10
2018-10-12T12:39:05.625Z,2.00
2018-10-12T12:41:33.610Z,1.80
2018-10-12T12:44:01.775Z,2.30
2018-10-12T12:46:29.935Z,2.03
2018-10-12T12:48:58.548Z,2.10
2018-10-12T12:51:26.222Z,2.40
2018-10-12T12:53:54.432Z,2.17
2018-10-12T12:56:22.521Z,2.20
2018-10-12T12:58:50.662Z,2.30
2018-10-12T13:01:18.806Z,2.17
2018-10-12T13:03:46.989Z,2.10
2018-10-12T13:06:15.152Z,2.67
2018-10-12T13:08:43.285Z,2.13
2018-10-12T13:11:11.472Z,2.00
2018-10-12T13:13:39.626Z,2.13
2018-10-12T13:16:07.761Z,2.13
2018-10-12T13:18:35.943Z,1.97
2018-10-12T13:21:04.102Z,2.37
2018-10-12T13:23:32.267Z,2.00
2018-10-12T13:26:00.562Z,2.00
2018-10-12T13:28:28.588Z,2.20
2018-10-12T13:30:56.729Z,2.40
2018-10-12T13:33:24.883Z,2.40
2018-10-12T13:35:53.035Z,2.57
2018-10-12T13:38:21.203Z,2.23
2018-10-12T13:40:49.331Z,2.10
2018-10-12T13:43:17.547Z,2.47
2018-10-12T13:45:45.722Z,2.13
2018-10-12T13:48:13.896Z,1.90
2018-10-12T13:50:42.094Z,2.17
2018-10-12T13:53:10.335Z,2.30
2018-10-12T13:55:38.547Z,2.53
2018-10-12T13:58:06.827Z,2.33
2018-10-12T14:00:35.075Z,2.00
2018-10-12T14:03:03.267Z,2.20
2018-10-12T14:05:31.580Z,2.00
2018-10-12T14:07:59.730Z,2.47
2018-10-12T14:10:27.911Z,2.13
2018-10-12T14:12:56.054Z,2.30
2018-10-12T14:15:24.634Z,2.00
2018-10-12T14:17:53.031Z,2.40
2018-10-12T14:20:21.390Z,2.30
2018-10-12T14:22:49.928Z,2.33
2018-10-12T14:25:18.350Z,2.47
2018-10-12T14:27:46.618Z,1.73
2018-10-12T14:30:15.038Z,1.77
2018-10-12T14:32:43.524Z,2.27
2018-10-12T14:35:12.074Z,2.23
2018-10-12T14:37:40.268Z,2.00
2018-10-12T14:40:08.451Z,1.90
2018-10-12T14:42:36.413Z,1.90
2018-10-12T14:45:04.695Z,2.63
2018-10-12T14:47:33.631Z,1.97
2018-10-12T14:50:01.749Z,2.20
2018-10-12T14:52:30.001Z,2.27
2018-10-12T14:54:58.267Z,2.00
2018-10-12T14:57:26.230Z,1.77
2018-10-12T14:59:55.254Z,2.20
2018-10-12T15:02:23.455Z,2.60
2018-10-12T15:04:51.634Z,2.10
2018-10-12T15:07:19.798Z,2.00
2018-10-12T15:09:47.994Z,2.20
2018-10-12T15:12:16.142Z,2.10
2018-10-12T15:14:49.714Z,2.27
2018-10-12T15:17:17.985Z,2.30
2018-10-12T15:19:46.170Z,2.37
2018-10-12T15:22:14.387Z,2.23
2018-10-12T15:24:42.550Z,2.47
2018-10-12T15:27:10.758Z,2.40
2018-10-12T15:29:38.947Z,2.90
2018-10-12T15:32:07.267Z,2.50
2018-10-12T15:34:35.527Z,2.10
2018-10-12T15:37:03.893Z,2.63
2018-10-12T15:39:32.055Z,2.63
2018-10-12T15:42:00.490Z,2.20
2018-10-12T15:44:28.807Z,2.47
2018-10-12T15:46:57.121Z,2.33
2018-10-12T15:49:25.190Z,2.70
2018-10-12T15:51:53.221Z,2.40
2018-10-12T15:54:21.664Z,2.40
2018-10-12T15:56:50.177Z,2.10
2018-10-12T15:59:18.825Z,2.10
2018-10-12T16:01:47.666Z,2.00
2018-10-12T16:04:15.979Z,2.23
2018-10-12T16:06:44.701Z,1.57
2018-10-12T16:09:13.012Z,2.10
2018-10-12T16:11:41.318Z,2.47
2018-10-12T16:14:09.723Z,2.10
2018-10-12T16:16:37.782Z,2.40
2018-10-12T16:19:06.155Z,2.17
2018-10-12T16:21:34.549Z,1.93
2018-10-12T16:24:08.268Z,2.00
2018-10-12T16:26:36.676Z,2.00
2018-10-12T16:29:05.032Z,2.00
2018-10-12T16:31:33.207Z,1.80
2018-10-12T16:34:01.539Z,2.17
2018-10-12T16:36:30.940Z,2.20
2018-10-12T16:38:59.313Z,1.83
2018-10-12T16:41:27.590Z,2.23
2018-10-12T16:43:55.813Z,2.27
2018-10-12T16:46:24.112Z,2.03
2018-10-12T16:48:52.620Z,2.17
2018-10-12T16:51:20.812Z,2.23
2018-10-12T16:53:55.516Z,2.10
2018-10-12T16:56:23.897Z,1.93
2018-10-12T16:58:52.282Z,2.27
2018-10-12T17:01:20.292Z,2.40
2018-10-12T17:03:48.402Z,2.40
2018-10-12T17:06:16.963Z,2.57
2018-10-12T17:08:45.155Z,2.93
2018-10-12T17:11:13.141Z,2.30
2018-10-12T17:13:41.190Z,2.47
2018-10-12T17:16:09.239Z,2.58
2018-10-12T17:18:37.515Z,2.77
2018-10-12T17:21:05.867Z,2.60
2018-10-12T17:23:34.714Z,2.70
2018-10-12T17:26:03.195Z,2.73
2018-10-12T17:28:31.711Z,2.53
2018-10-12T17:30:59.844Z,2.80
2018-10-12T17:33:27.824Z,2.57
2018-10-12T17:35:56.029Z,2.80
2018-10-12T17:38:24.238Z,2.90
2018-10-12T17:40:52.924Z,2.90
2018-10-12T17:43:21.226Z,3.17
2018-10-12T17:45:49.561Z,3.83
2018-10-12T17:48:18.023Z,4.30
2018-10-12T17:50:46.331Z,4.17
2018-10-12T17:53:14.842Z,4.23
2018-10-12T17:55:42.823Z,4.17
2018-10-12T17:58:11.331Z,3.47
2018-10-12T18:00:39.776Z,4.17
2018-10-12T18:03:08.255Z,3.60
2018-10-12T18:05:36.530Z,3.70
2018-10-12T18:08:05.109Z,3.83
2018-10-12T18:10:33.344Z,3.73
2018-10-12T18:13:01.814Z,3.70
2018-10-12T18:15:31.531Z,3.97
2018-10-12T18:18:01.504Z,3.97
2018-10-12T18:20:29.935Z,4.07
2018-10-12T18:22:58.610Z,3.90
2018-10-12T18:25:27.931Z,4.53
2018-10-12T18:27:56.168Z,4.40
2018-10-12T18:30:24.428Z,4.80
2018-10-12T18:32:53.095Z,5.00
2018-10-12T18:35:21.658Z,4.30
2018-10-12T18:37:50.167Z,4.30
2018-10-12T18:40:18.719Z,4.93
2018-10-12T18:42:47.259Z,5.40
2018-10-12T18:45:15.570Z,4.83
2018-10-12T18:47:43.936Z,5.27
2018-10-12T18:50:12.434Z,5.53
2018-10-12T18:52:40.847Z,5.57
2018-10-12T18:55:09.412Z,5.43
2018-10-12T18:57:37.501Z,6.00
2018-10-12T19:00:07.217Z,5.97
2018-10-12T19:02:35.596Z,5.90
2018-10-12T19:05:04.126Z,6.53
2018-10-12T19:07:32.045Z,8.50
2018-10-12T19:10:00.103Z,6.77
2018-10-12T19:12:28.097Z,5.40
2018-10-12T19:14:56.567Z,5.87
2018-10-12T19:17:25.088Z,7.90
2018-10-12T19:19:54.187Z,7.57
2018-10-12T19:22:22.390Z,6.47
2018-10-12T19:24:50.556Z,7.03
2018-10-12T19:27:18.740Z,7.80
2018-10-12T19:29:46.914Z,8.87
2018-10-12T19:32:15.382Z,8.33
2018-10-12T19:34:43.709Z,6.37
2018-10-12T19:37:12.390Z,7.00
2018-10-12T19:39:40.743Z,5.70
2018-10-12T19:42:09.047Z,5.70
2018-10-12T19:44:37.265Z,6.60
2018-10-12T19:47:06.762Z,6.77
2018-10-12T19:49:35.333Z,8.87
2018-10-12T19:52:03.863Z,8.53
2018-10-12T19:54:32.502Z,20.00
2018-10-12T19:57:01.127Z,16.37
2018-10-12T19:59:30.426Z,11.37
2018-10-12T20:01:58.832Z,10.00
2018-10-12T20:04:27.073Z,7.33
2018-10-12T20:06:55.270Z,6.33
2018-10-12T20:09:23.699Z,6.13
2018-10-12T20:11:52.349Z,7.87
2018-10-12T20:14:21.208Z,6.90
2018-10-12T20:16:49.307Z,5.73
2018-10-12T20:19:17.283Z,6.17
2018-10-12T20:21:45.336Z,7.87
2018-10-12T20:24:13.407Z,6.70
2018-10-12T20:26:41.425Z,6.43
2018-10-12T20:29:09.406Z,7.80
2018-10-12T20:31:37.705Z,7.60
2018-10-12T20:34:06.205Z,7.27
2018-10-12T20:36:34.486Z,6.50
2018-10-12T20:39:02.954Z,22.23
2018-10-12T20:41:31.227Z,13.93
2018-10-12T20:43:59.351Z,11.70
2018-10-12T20:46:27.524Z,8.97
2018-10-12T20:48:55.952Z,8.70
2018-10-12T20:51:24.151Z,7.93
2018-10-12T20:53:52.482Z,7.23
2018-10-12T20:56:20.852Z,8.10
2018-10-12T20:58:48.776Z,8.30
2018-10-12T21:01:17.103Z,8.40
2018-10-12T21:03:45.109Z,8.70
2018-10-12T21:06:13.363Z,7.00
2018-10-12T21:08:41.486Z,8.27
2018-10-12T21:11:09.702Z,7.67
2018-10-12T21:13:37.760Z,7.70
2018-10-12T21:16:05.766Z,7.70
2018-10-12T21:18:34.039Z,7.37
2018-10-12T21:21:02.227Z,8.23
2018-10-12T21:23:30.606Z,8.60
2018-10-12T21:25:59.102Z,8.80
2018-10-12T21:28:27.827Z,8.13
2018-10-12T21:30:55.800Z,7.17
2018-10-12T21:33:24.054Z,6.93
2018-10-12T21:35:52.295Z,6.63
2018-10-12T21:38:20.636Z,7.93
2018-10-12T21:40:48.985Z,7.70
2018-10-12T21:43:17.390Z,8.23
2018-10-12T21:45:45.580Z,7.47
2018-10-12T21:48:13.731Z,6.97
2018-10-12T21:50:41.907Z,8.17
2018-10-12T21:53:09.837Z,6.97
2018-10-12T21:55:38.023Z,7.03
2018-10-12T21:58:06.592Z,6.97
2018-10-12T22:00:34.831Z,7.63
2018-10-12T22:03:02.901Z,7.63
2018-10-12T22:05:31.235Z,8.60
2018-10-12T22:07:59.998Z,9.17
2018-10-12T22:10:28.191Z,9.17
2018-10-12T22:12:56.119Z,7.30
2018-10-12T22:15:24.644Z,7.60
2018-10-12T22:17:54.039Z,7.47
2018-10-12T22:20:22.312Z,7.87
2018-10-12T22:22:50.951Z,7.20
2018-10-12T22:25:19.637Z,6.90
2018-10-12T22:27:47.816Z,8.40
2018-10-12T22:30:15.795Z,8.43
2018-10-12T22:32:44.272Z,8.53
2018-10-12T22:35:12.650Z,7.50
2018-10-12T22:37:40.796Z,8.27
2018-10-12T22:40:09.891Z,7.77
2018-10-12T22:42:38.403Z,7.47
2018-10-12T22:45:07.072Z,7.07
2018-10-12T22:47:35.196Z,7.63
2018-10-12T22:50:03.249Z,6.13
2018-10-12T22:52:31.355Z,7.20
2018-10-12T22:54:59.417Z,7.13
2018-10-12T22:57:27.476Z,7.23
2018-10-12T22:59:55.774Z,7.43
2018-10-12T23:02:23.936Z,8.10
2018-10-12T23:04:52.171Z,7.40
2018-10-12T23:07:20.350Z,7.53
2018-10-12T23:09:48.547Z,7.53
2018-10-12T23:12:16.823Z,6.23
2018-10-12T23:14:44.759Z,6.50
2018-10-12T23:17:13.025Z,7.00
2018-10-12T23:19:41.005Z,6.30
2018-10-12T23:22:09.009Z,6.30
2018-10-12T23:24:36.943Z,5.70
2018-10-12T23:27:05.111Z,6.03
2018-10-12T23:29:33.318Z,6.57
2018-10-12T23:32:01.488Z,6.93
2018-10-12T23:34:29.413Z,6.00
2018-10-12T23:36:57.611Z,5.93
2018-10-12T23:39:25.806Z,6.33
2018-10-12T23:41:53.743Z,6.50
2018-10-12T23:44:21.902Z,5.80
2018-10-12T23:46:50.226Z,6.17
2018-10-12T23:49:18.390Z,6.87
2018-10-12T23:51:46.329Z,5.80
2018-10-12T23:54:14.515Z,6.07
2018-10-12T23:56:42.726Z,6.13
2018-10-12T23:59:10.670Z,5.87
